sensor_id;sensor_type;location;lat;lon;timestamp;P1;durP1;ratioP1;P2;durP2;ratioP2
67712;SDS011;67640;55.784;49.138;2023-12-20T00:00:46;2.25;;;0.20;;
67712;SDS011;67640;55.784;49.138;2023-12-20T00:06:11;1.52;;;0.20;;
67712;SDS011;67640;55.784;49.138;2023-12-20T00:17:29;0.93;;;0.10;;
67712;SDS011;67640;55.784;49.138;2023-12-20T00:22:48;0.75;;;0.20;;
67712;SDS011;67640;55.784;49.138;2023-12-20T00:28:07;1.52;;;0.20;;
67712;SDS011;67640;55.784;49.138;2023-12-20T00:33:26;1.98;;;0.20;;
67712;SDS011;67640;55.784;49.138;2023-12-20T00:38:46;1.00;;;0.10;;
67712;SDS011;67640;55.784;49.138;2023-12-20T00:44:05;1.15;;;0.13;;
67712;SDS011;67640;55.784;49.138;2023-12-20T00:49:43;1.40;;;0.20;;
67712;SDS011;67640;55.784;49.138;2023-12-20T00:55:03;2.77;;;0.40;;
67712;SDS011;67640;55.784;49.138;2023-12-20T01:00:22;2.50;;;0.30;;
67712;SDS011;67640;55.784;49.138;2023-12-20T01:05:41;6.10;;;0.67;;
67712;SDS011;67640;55.784;49.138;2023-12-20T01:11:00;2.22;;;0.40;;
67712;SDS011;67640;55.784;49.138;2023-12-20T01:16:21;2.70;;;0.40;;
67712;SDS011;67640;55.784;49.138;2023-12-20T01:21:40;2.37;;;0.55;;
67712;SDS011;67640;55.784;49.138;2023-12-20T01:26:59;1.12;;;0.40;;
67712;SDS011;67640;55.784;49.138;2023-12-20T01:32:18;4.87;;;0.53;;
67712;SDS011;67640;55.784;49.138;2023-12-20T01:37:37;3.08;;;0.47;;
67712;SDS011;67640;55.784;49.138;2023-12-20T01:48:37;1.82;;;0.42;;
67712;SDS011;67640;55.784;49.138;2023-12-20T01:53:56;3.37;;;0.68;;
67712;SDS011;67640;55.784;49.138;2023-12-20T01:59:17;2.47;;;0.53;;
67712;SDS011;67640;55.784;49.138;2023-12-20T02:04:37;3.40;;;0.62;;
67712;SDS011;67640;55.784;49.138;2023-12-20T02:09:56;2.77;;;1.00;;
67712;SDS011;67640;55.784;49.138;2023-12-20T02:15:15;5.45;;;0.60;;
67712;SDS011;67640;55.784;49.138;2023-12-20T02:20:54;2.00;;;0.65;;
67712;SDS011;67640;55.784;49.138;2023-12-20T02:26:13;2.70;;;0.80;;
67712;SDS011;67640;55.784;49.138;2023-12-20T02:31:32;4.28;;;0.88;;
67712;SDS011;67640;55.784;49.138;2023-12-20T02:36:51;2.47;;;0.68;;
67712;SDS011;67640;55.784;49.138;2023-12-20T02:42:10;7.47;;;1.00;;
67712;SDS011;67640;55.784;49.138;2023-12-20T02:47:29;2.70;;;1.02;;
67712;SDS011;67640;55.784;49.138;2023-12-20T02:53:08;2.53;;;0.70;;
67712;SDS011;67640;55.784;49.138;2023-12-20T02:58:27;3.40;;;0.90;;
67712;SDS011;67640;55.784;49.138;2023-12-20T03:03:46;5.50;;;1.12;;
67712;SDS011;67640;55.784;49.138;2023-12-20T03:09:05;5.70;;;0.93;;
67712;SDS011;67640;55.784;49.138;2023-12-20T03:14:24;7.92;;;1.25;;
67712;SDS011;67640;55.784;49.138;2023-12-20T03:19:43;7.87;;;1.07;;
67712;SDS011;67640;55.784;49.138;2023-12-20T03:25:03;3.85;;;0.90;;
67712;SDS011;67640;55.784;49.138;2023-12-20T03:30:22;3.85;;;0.75;;
67712;SDS011;67640;55.784;49.138;2023-12-20T03:35:41;4.75;;;1.02;;
67712;SDS011;67640;55.784;49.138;2023-12-20T03:41:01;3.25;;;1.10;;
67712;SDS011;67640;55.784;49.138;2023-12-20T03:46:20;7.23;;;1.00;;
67712;SDS011;67640;55.784;49.138;2023-12-20T03:51:39;2.50;;;0.70;;
67712;SDS011;67640;55.784;49.138;2023-12-20T03:56:58;3.58;;;1.00;;
67712;SDS011;67640;55.784;49.138;2023-12-20T04:02:17;3.35;;;1.10;;
67712;SDS011;67640;55.784;49.138;2023-12-20T04:07:36;5.40;;;1.00;;
67712;SDS011;67640;55.784;49.138;2023-12-20T04:12:55;7.73;;;1.30;;
67712;SDS011;67640;55.784;49.138;2023-12-20T04:18:14;8.35;;;1.00;;
67712;SDS011;67640;55.784;49.138;2023-12-20T04:23:33;3.90;;;0.90;;
67712;SDS011;67640;55.784;49.138;2023-12-20T04:28:52;5.00;;;0.80;;
67712;SDS011;67640;55.784;49.138;2023-12-20T04:34:11;5.28;;;0.80;;
67712;SDS011;67640;55.784;49.138;2023-12-20T04:39:31;4.60;;;0.90;;
67712;SDS011;67640;55.784;49.138;2023-12-20T04:44:50;3.60;;;0.93;;
67712;SDS011;67640;55.784;49.138;2023-12-20T04:50:09;6.50;;;1.20;;
67712;SDS011;67640;55.784;49.138;2023-12-20T04:55:28;3.45;;;1.00;;
67712;SDS011;67640;55.784;49.138;2023-12-20T05:00:47;5.90;;;1.00;;
67712;SDS011;67640;55.784;49.138;2023-12-20T05:06:06;3.83;;;1.10;;
67712;SDS011;67640;55.784;49.138;2023-12-20T05:11:25;3.37;;;1.25;;
67712;SDS011;67640;55.784;49.138;2023-12-20T05:16:44;2.92;;;1.00;;
67712;SDS011;67640;55.784;49.138;2023-12-20T05:22:03;3.87;;;1.25;;
67712;SDS011;67640;55.784;49.138;2023-12-20T05:27:23;3.08;;;0.80;;
67712;SDS011;67640;55.784;49.138;2023-12-20T05:32:42;4.10;;;0.80;;
67712;SDS011;67640;55.784;49.138;2023-12-20T05:38:01;3.10;;;0.90;;
67712;SDS011;67640;55.784;49.138;2023-12-20T05:43:20;2.75;;;0.62;;
67712;SDS011;67640;55.784;49.138;2023-12-20T05:48:39;4.75;;;0.98;;
67712;SDS011;67640;55.784;49.138;2023-12-20T05:54:00;5.87;;;1.62;;
67712;SDS011;67640;55.784;49.138;2023-12-20T05:59:19;2.40;;;0.80;;
67712;SDS011;67640;55.784;49.138;2023-12-20T06:04:41;3.17;;;1.12;;
67712;SDS011;67640;55.784;49.138;2023-12-20T06:09:59;10.23;;;1.12;;
67712;SDS011;67640;55.784;49.138;2023-12-20T06:15:22;2.83;;;1.00;;
67712;SDS011;67640;55.784;49.138;2023-12-20T06:20:46;5.78;;;1.60;;
67712;SDS011;67640;55.784;49.138;2023-12-20T06:26:05;2.87;;;1.00;;
67712;SDS011;67640;55.784;49.138;2023-12-20T06:31:24;3.10;;;1.10;;
67712;SDS011;67640;55.784;49.138;2023-12-20T06:36:29;6.22;;;1.45;;
67712;SDS011;67640;55.784;49.138;2023-12-20T06:41:35;4.72;;;1.30;;
67712;SDS011;67640;55.784;49.138;2023-12-20T06:46:40;4.95;;;1.72;;
67712;SDS011;67640;55.784;49.138;2023-12-20T06:51:59;4.63;;;1.13;;
67712;SDS011;67640;55.784;49.138;2023-12-20T06:57:18;4.83;;;1.70;;
67712;SDS011;67640;55.784;49.138;2023-12-20T07:02:24;4.72;;;1.50;;
67712;SDS011;67640;55.784;49.138;2023-12-20T07:07:29;6.65;;;2.10;;
67712;SDS011;67640;55.784;49.138;2023-12-20T07:12:34;6.90;;;2.30;;
67712;SDS011;67640;55.784;49.138;2023-12-20T07:17:39;6.37;;;1.70;;
67712;SDS011;67640;55.784;49.138;2023-12-20T07:22:58;4.67;;;1.60;;
67712;SDS011;67640;55.784;49.138;2023-12-20T07:28:15;3.50;;;1.20;;
67712;SDS011;67640;55.784;49.138;2023-12-20T07:33:21;4.47;;;1.50;;
67712;SDS011;67640;55.784;49.138;2023-12-20T07:38:26;4.37;;;1.35;;
67712;SDS011;67640;55.784;49.138;2023-12-20T07:43:45;8.95;;;1.95;;
67712;SDS011;67640;55.784;49.138;2023-12-20T07:49:04;10.20;;;3.43;;
67712;SDS011;67640;55.784;49.138;2023-12-20T07:54:24;11.57;;;4.50;;
67712;SDS011;67640;55.784;49.138;2023-12-20T07:59:28;25.03;;;5.90;;
67712;SDS011;67640;55.784;49.138;2023-12-20T08:04:34;11.20;;;4.25;;
67712;SDS011;67640;55.784;49.138;2023-12-20T08:09:39;8.43;;;2.87;;
67712;SDS011;67640;55.784;49.138;2023-12-20T08:14:45;9.17;;;3.10;;
67712;SDS011;67640;55.784;49.138;2023-12-20T08:19:51;9.43;;;2.80;;
67712;SDS011;67640;55.784;49.138;2023-12-20T08:25:10;18.30;;;4.00;;
67712;SDS011;67640;55.784;49.138;2023-12-20T08:30:16;13.03;;;3.80;;
67712;SDS011;67640;55.784;49.138;2023-12-20T08:35:35;8.15;;;2.85;;
67712;SDS011;67640;55.784;49.138;2023-12-20T08:40:40;10.30;;;2.72;;
67712;SDS011;67640;55.784;49.138;2023-12-20T08:45:45;9.08;;;3.00;;
67712;SDS011;67640;55.784;49.138;2023-12-20T08:51:05;16.35;;;3.20;;
67712;SDS011;67640;55.784;49.138;2023-12-20T08:56:24;10.00;;;3.50;;
67712;SDS011;67640;55.784;49.138;2023-12-20T09:01:43;14.13;;;4.67;;
67712;SDS011;67640;55.784;49.138;2023-12-20T09:06:48;10.40;;;3.45;;
67712;SDS011;67640;55.784;49.138;2023-12-20T09:11:54;7.12;;;1.98;;
67712;SDS011;67640;55.784;49.138;2023-12-20T09:22:19;7.00;;;1.82;;
67712;SDS011;67640;55.784;49.138;2023-12-20T09:27:24;7.50;;;2.17;;
67712;SDS011;67640;55.784;49.138;2023-12-20T09:32:29;7.75;;;1.80;;
67712;SDS011;67640;55.784;49.138;2023-12-20T09:38:08;6.07;;;1.90;;
67712;SDS011;67640;55.784;49.138;2023-12-20T09:43:27;5.97;;;1.95;;
67712;SDS011;67640;55.784;49.138;2023-12-20T09:48:46;7.75;;;2.37;;
67712;SDS011;67640;55.784;49.138;2023-12-20T09:53:52;5.60;;;2.07;;
67712;SDS011;67640;55.784;49.138;2023-12-20T09:58:59;13.60;;;3.55;;
67712;SDS011;67640;55.784;49.138;2023-12-20T10:04:05;9.53;;;2.03;;
67712;SDS011;67640;55.784;49.138;2023-12-20T10:09:11;8.90;;;2.65;;
67712;SDS011;67640;55.784;49.138;2023-12-20T10:14:30;9.40;;;2.47;;
67712;SDS011;67640;55.784;49.138;2023-12-20T10:19:50;9.80;;;2.67;;
67712;SDS011;67640;55.784;49.138;2023-12-20T10:25:26;12.70;;;3.10;;
67712;SDS011;67640;55.784;49.138;2023-12-20T10:30:31;6.92;;;2.83;;
67712;SDS011;67640;55.784;49.138;2023-12-20T10:35:51;8.88;;;2.75;;
67712;SDS011;67640;55.784;49.138;2023-12-20T10:40:57;7.93;;;2.93;;
67712;SDS011;67640;55.784;49.138;2023-12-20T10:46:03;7.65;;;2.70;;
67712;SDS011;67640;55.784;49.138;2023-12-20T10:51:22;7.87;;;3.00;;
67712;SDS011;67640;55.784;49.138;2023-12-20T10:56:42;9.93;;;3.55;;
67712;SDS011;67640;55.784;49.138;2023-12-20T11:02:04;7.20;;;2.90;;
67712;SDS011;67640;55.784;49.138;2023-12-20T11:12:52;9.20;;;2.47;;
67712;SDS011;67640;55.784;49.138;2023-12-20T11:17:57;7.50;;;2.65;;
67712;SDS011;67640;55.784;49.138;2023-12-20T11:23:05;7.77;;;2.30;;
67712;SDS011;67640;55.784;49.138;2023-12-20T11:28:11;6.28;;;2.50;;
67712;SDS011;67640;55.784;49.138;2023-12-20T11:33:17;7.65;;;2.30;;
67712;SDS011;67640;55.784;49.138;2023-12-20T11:38:37;6.58;;;2.20;;
67712;SDS011;67640;55.784;49.138;2023-12-20T11:43:43;7.95;;;1.80;;
67712;SDS011;67640;55.784;49.138;2023-12-20T11:48:50;6.03;;;2.00;;
67712;SDS011;67640;55.784;49.138;2023-12-20T11:53:56;8.95;;;2.22;;
67712;SDS011;67640;55.784;49.138;2023-12-20T11:59:02;6.72;;;2.22;;
67712;SDS011;67640;55.784;49.138;2023-12-20T12:04:21;5.83;;;2.12;;
67712;SDS011;67640;55.784;49.138;2023-12-20T12:09:27;7.40;;;1.65;;
67712;SDS011;67640;55.784;49.138;2023-12-20T12:14:46;10.43;;;3.50;;
67712;SDS011;67640;55.784;49.138;2023-12-20T12:19:51;8.53;;;3.15;;
67712;SDS011;67640;55.784;49.138;2023-12-20T12:36:12;6.25;;;1.70;;
67712;SDS011;67640;55.784;49.138;2023-12-20T12:41:18;7.20;;;2.30;;
67712;SDS011;67640;55.784;49.138;2023-12-20T12:46:37;8.93;;;2.77;;
67712;SDS011;67640;55.784;49.138;2023-12-20T12:51:56;7.55;;;2.80;;
67712;SDS011;67640;55.784;49.138;2023-12-20T12:57:15;7.27;;;2.60;;
67712;SDS011;67640;55.784;49.138;2023-12-20T13:02:20;8.78;;;2.92;;
67712;SDS011;67640;55.784;49.138;2023-12-20T13:07:26;8.68;;;2.77;;
67712;SDS011;67640;55.784;49.138;2023-12-20T13:12:32;7.13;;;2.77;;
67712;SDS011;67640;55.784;49.138;2023-12-20T13:17:37;8.78;;;3.12;;
67712;SDS011;67640;55.784;49.138;2023-12-20T13:22:56;6.70;;;2.43;;
67712;SDS011;67640;55.784;49.138;2023-12-20T13:28:01;8.40;;;2.85;;
67712;SDS011;67640;55.784;49.138;2023-12-20T13:33:06;8.45;;;2.45;;
67712;SDS011;67640;55.784;49.138;2023-12-20T13:38:12;6.53;;;2.37;;
67712;SDS011;67640;55.784;49.138;2023-12-20T13:43:32;8.63;;;3.00;;
67712;SDS011;67640;55.784;49.138;2023-12-20T13:48:51;11.27;;;4.20;;
67712;SDS011;67640;55.784;49.138;2023-12-20T13:54:11;7.47;;;2.97;;
67712;SDS011;67640;55.784;49.138;2023-12-20T13:59:36;6.33;;;2.47;;
67712;SDS011;67640;55.784;49.138;2023-12-20T14:04:42;6.35;;;2.58;;
67712;SDS011;67640;55.784;49.138;2023-12-20T14:09:59;8.83;;;3.00;;
67712;SDS011;67640;55.784;49.138;2023-12-20T14:15:04;9.83;;;3.83;;
67712;SDS011;67640;55.784;49.138;2023-12-20T14:20:24;8.45;;;3.27;;
67712;SDS011;67640;55.784;49.138;2023-12-20T14:25:29;8.67;;;3.60;;
67712;SDS011;67640;55.784;49.138;2023-12-20T14:30:48;9.93;;;3.65;;
67712;SDS011;67640;55.784;49.138;2023-12-20T14:36:09;11.17;;;3.70;;
67712;SDS011;67640;55.784;49.138;2023-12-20T14:41:14;12.37;;;4.00;;
67712;SDS011;67640;55.784;49.138;2023-12-20T14:46:20;10.43;;;3.15;;
67712;SDS011;67640;55.784;49.138;2023-12-20T14:51:39;7.90;;;3.47;;
67712;SDS011;67640;55.784;49.138;2023-12-20T14:56:44;12.55;;;3.83;;
67712;SDS011;67640;55.784;49.138;2023-12-20T15:02:03;7.50;;;3.10;;
67712;SDS011;67640;55.784;49.138;2023-12-20T15:07:22;7.50;;;2.97;;
67712;SDS011;67640;55.784;49.138;2023-12-20T15:12:27;7.30;;;2.92;;
67712;SDS011;67640;55.784;49.138;2023-12-20T15:17:33;11.12;;;3.40;;
67712;SDS011;67640;55.784;49.138;2023-12-20T15:22:52;13.45;;;4.53;;
67712;SDS011;67640;55.784;49.138;2023-12-20T15:28:11;15.72;;;4.37;;
67712;SDS011;67640;55.784;49.138;2023-12-20T15:33:30;10.93;;;4.00;;
67712;SDS011;67640;55.784;49.138;2023-12-20T15:38:35;8.15;;;3.20;;
67712;SDS011;67640;55.784;49.138;2023-12-20T15:43:41;10.15;;;3.58;;
67712;SDS011;67640;55.784;49.138;2023-12-20T15:48:47;14.60;;;3.98;;
67712;SDS011;67640;55.784;49.138;2023-12-20T15:54:06;9.33;;;3.42;;
67712;SDS011;67640;55.784;49.138;2023-12-20T15:59:25;12.50;;;3.53;;
67712;SDS011;67640;55.784;49.138;2023-12-20T16:04:30;8.80;;;3.58;;
67712;SDS011;67640;55.784;49.138;2023-12-20T16:09:50;11.70;;;4.35;;
67712;SDS011;67640;55.784;49.138;2023-12-20T16:14:56;9.75;;;3.80;;
67712;SDS011;67640;55.784;49.138;2023-12-20T16:20:02;15.75;;;4.00;;
67712;SDS011;67640;55.784;49.138;2023-12-20T16:25:21;7.93;;;3.33;;
67712;SDS011;67640;55.784;49.138;2023-12-20T16:30:26;12.60;;;4.10;;
67712;SDS011;67640;55.784;49.138;2023-12-20T16:35:45;8.83;;;3.55;;
67712;SDS011;67640;55.784;49.138;2023-12-20T16:41:04;10.38;;;3.80;;
67712;SDS011;67640;55.784;49.138;2023-12-20T16:46:10;9.80;;;3.60;;
67712;SDS011;67640;55.784;49.138;2023-12-20T16:51:28;9.60;;;3.30;;
67712;SDS011;67640;55.784;49.138;2023-12-20T16:56:33;9.40;;;3.20;;
67712;SDS011;67640;55.784;49.138;2023-12-20T17:01:39;8.93;;;3.42;;
67712;SDS011;67640;55.784;49.138;2023-12-20T17:06:58;8.80;;;3.70;;
67712;SDS011;67640;55.784;49.138;2023-12-20T17:12:17;7.10;;;3.33;;
67712;SDS011;67640;55.784;49.138;2023-12-20T17:17:36;11.25;;;3.65;;
67712;SDS011;67640;55.784;49.138;2023-12-20T17:22:41;9.83;;;2.83;;
67712;SDS011;67640;55.784;49.138;2023-12-20T17:27:47;7.00;;;3.10;;
67712;SDS011;67640;55.784;49.138;2023-12-20T17:33:08;9.23;;;3.25;;
67712;SDS011;67640;55.784;49.138;2023-12-20T17:38:13;10.23;;;3.67;;
67712;SDS011;67640;55.784;49.138;2023-12-20T17:43:19;9.90;;;3.92;;
67712;SDS011;67640;55.784;49.138;2023-12-20T17:48:38;10.78;;;4.17;;
67712;SDS011;67640;55.784;49.138;2023-12-20T17:53:57;9.50;;;3.47;;
67712;SDS011;67640;55.784;49.138;2023-12-20T17:59:16;10.43;;;3.80;;
67712;SDS011;67640;55.784;49.138;2023-12-20T18:04:21;7.80;;;3.17;;
67712;SDS011;67640;55.784;49.138;2023-12-20T18:09:39;10.63;;;3.23;;
67712;SDS011;67640;55.784;49.138;2023-12-20T18:14:45;8.55;;;3.37;;
67712;SDS011;67640;55.784;49.138;2023-12-20T18:19:50;9.67;;;2.97;;
67712;SDS011;67640;55.784;49.138;2023-12-20T18:25:09;8.05;;;3.35;;
67712;SDS011;67640;55.784;49.138;2023-12-20T18:30:28;8.43;;;3.10;;
67712;SDS011;67640;55.784;49.138;2023-12-20T18:35:47;8.03;;;2.70;;
67712;SDS011;67640;55.784;49.138;2023-12-20T18:40:53;7.90;;;3.12;;
67712;SDS011;67640;55.784;49.138;2023-12-20T18:46:12;9.67;;;3.00;;
67712;SDS011;67640;55.784;49.138;2023-12-20T18:51:18;9.03;;;3.22;;
67712;SDS011;67640;55.784;49.138;2023-12-20T18:56:28;5.92;;;2.37;;
67712;SDS011;67640;55.784;49.138;2023-12-20T19:02:07;11.60;;;3.30;;
67712;SDS011;67640;55.784;49.138;2023-12-20T19:07:26;9.03;;;3.20;;
67712;SDS011;67640;55.784;49.138;2023-12-20T19:12:48;8.30;;;3.07;;
67712;SDS011;67640;55.784;49.138;2023-12-20T19:17:54;8.78;;;3.12;;
67712;SDS011;67640;55.784;49.138;2023-12-20T19:23:13;9.95;;;3.42;;
67712;SDS011;67640;55.784;49.138;2023-12-20T19:28:19;10.05;;;3.33;;
67712;SDS011;67640;55.784;49.138;2023-12-20T19:33:24;6.47;;;2.83;;
67712;SDS011;67640;55.784;49.138;2023-12-20T19:38:43;11.03;;;3.22;;
67712;SDS011;67640;55.784;49.138;2023-12-20T19:44:02;10.00;;;3.30;;
67712;SDS011;67640;55.784;49.138;2023-12-20T19:49:21;9.13;;;3.20;;
67712;SDS011;67640;55.784;49.138;2023-12-20T19:54:27;8.03;;;2.83;;
67712;SDS011;67640;55.784;49.138;2023-12-20T19:59:45;6.87;;;2.77;;
67712;SDS011;67640;55.784;49.138;2023-12-20T20:04:50;8.10;;;3.00;;
67712;SDS011;67640;55.784;49.138;2023-12-20T20:09:56;8.43;;;3.08;;
67712;SDS011;67640;55.784;49.138;2023-12-20T20:15:15;7.77;;;2.90;;
67712;SDS011;67640;55.784;49.138;2023-12-20T20:20:34;7.22;;;2.62;;
67712;SDS011;67640;55.784;49.138;2023-12-20T20:25:53;6.60;;;2.70;;
67712;SDS011;67640;55.784;49.138;2023-12-20T20:30:59;10.53;;;3.17;;
67712;SDS011;67640;55.784;49.138;2023-12-20T20:36:05;8.95;;;3.17;;
67712;SDS011;67640;55.784;49.138;2023-12-20T20:41:20;7.97;;;2.80;;
67712;SDS011;67640;55.784;49.138;2023-12-20T20:46:40;11.20;;;2.70;;
67712;SDS011;67640;55.784;49.138;2023-12-20T20:51:59;6.03;;;2.40;;
67712;SDS011;67640;55.784;49.138;2023-12-20T20:57:37;7.78;;;2.70;;
67712;SDS011;67640;55.784;49.138;2023-12-20T21:02:42;5.85;;;2.52;;
67712;SDS011;67640;55.784;49.138;2023-12-20T21:07:48;11.17;;;2.97;;
67712;SDS011;67640;55.784;49.138;2023-12-20T21:13:07;10.05;;;3.00;;
67712;SDS011;67640;55.784;49.138;2023-12-20T21:18:26;10.73;;;3.03;;
67712;SDS011;67640;55.784;49.138;2023-12-20T21:23:45;14.03;;;3.60;;
67712;SDS011;67640;55.784;49.138;2023-12-20T21:29:06;7.17;;;2.98;;
67712;SDS011;67640;55.784;49.138;2023-12-20T21:34:11;8.13;;;3.05;;
67712;SDS011;67640;55.784;49.138;2023-12-20T21:39:30;8.58;;;3.10;;
67712;SDS011;67640;55.784;49.138;2023-12-20T21:44:36;8.98;;;3.83;;
67712;SDS011;67640;55.784;49.138;2023-12-20T21:49:56;8.67;;;3.40;;
67712;SDS011;67640;55.784;49.138;2023-12-20T21:55:15;12.98;;;4.70;;
67712;SDS011;67640;55.784;49.138;2023-12-20T22:00:21;7.97;;;3.70;;
67712;SDS011;67640;55.784;49.138;2023-12-20T22:05:41;8.15;;;3.40;;
67712;SDS011;67640;55.784;49.138;2023-12-20T22:10:48;13.40;;;4.35;;
67712;SDS011;67640;55.784;49.138;2023-12-20T22:16:07;10.13;;;4.30;;
67712;SDS011;67640;55.784;49.138;2023-12-20T22:21:26;8.73;;;4.00;;
67712;SDS011;67640;55.784;49.138;2023-12-20T22:26:32;9.95;;;4.28;;
67712;SDS011;67640;55.784;49.138;2023-12-20T22:31:50;10.20;;;4.20;;
67712;SDS011;67640;55.784;49.138;2023-12-20T22:36:56;9.38;;;4.15;;
67712;SDS011;67640;55.784;49.138;2023-12-20T22:42:01;11.35;;;5.15;;
67712;SDS011;67640;55.784;49.138;2023-12-20T22:47:21;10.27;;;4.67;;
67712;SDS011;67640;55.784;49.138;2023-12-20T22:52:40;14.30;;;5.22;;
67712;SDS011;67640;55.784;49.138;2023-12-20T22:58:00;14.40;;;5.00;;
67712;SDS011;67640;55.784;49.138;2023-12-20T23:03:19;9.93;;;4.40;;
67712;SDS011;67640;55.784;49.138;2023-12-20T23:08:23;9.73;;;4.53;;
67712;SDS011;67640;55.784;49.138;2023-12-20T23:13:29;7.63;;;3.33;;
67712;SDS011;67640;55.784;49.138;2023-12-20T23:18:48;9.53;;;3.90;;
67712;SDS011;67640;55.784;49.138;2023-12-20T23:23:53;7.93;;;3.43;;
67712;SDS011;67640;55.784;49.138;2023-12-20T23:29:12;7.92;;;3.70;;
67712;SDS011;67640;55.784;49.138;2023-12-20T23:34:22;7.05;;;3.20;;
67712;SDS011;67640;55.784;49.138;2023-12-20T23:39:27;6.87;;;3.10;;
67712;SDS011;67640;55.784;49.138;2023-12-20T23:44:46;7.42;;;3.45;;
67712;SDS011;67640;55.784;49.138;2023-12-20T23:49:51;6.67;;;2.90;;
67712;SDS011;67640;55.784;49.138;2023-12-20T23:55:10;8.70;;;3.30;;
